Time;durP1;ratioP1;P1;durP2;ratioP2;P2;SDS_P1;SDS_P2;PMS_P1;PMS_P2;Temp;Humidity;BMP_temperature;BMP_pressure;BME280_temperature;BME280_humidity;BME280_pressure;Samples;Min_cycle;Max_cycle;Signal;HPM_P1;HPM_P2
2023/03/22 00:01:36;;;;;;;10.23;4.78;;;9.30;99.90;;;;;;7405328;19;19918;-75
2023/03/22 00:04:06;;;;;;;8.20;4.30;;;9.30;99.90;;;;;;7405668;19;19918;-76
2023/03/22 00:06:35;;;;;;;8.02;4.55;;;9.40;99.90;;;;;;7404446;19;19933;-75
2023/03/22 00:09:04;;;;;;;10.82;4.30;;;9.40;99.90;;;;;;7406715;19;19939;-76
2023/03/22 00:11:35;;;;;;;7.13;4.30;;;9.40;99.90;;;;;;7405039;19;19918;-76
2023/03/22 00:14:05;;;;;;;;;;;9.30;99.90;;;;;;7406866;19;19914;-76
2023/03/22 00:16:35;;;;;;;12.95;4.38;;;9.30;99.90;;;;;;7405162;19;20555;-76
2023/03/22 00:19:04;;;;;;;10.52;4.57;;;9.30;99.90;;;;;;7404783;19;19918;-76
2023/03/22 00:21:33;;;;;;;7.43;3.85;;;9.30;99.90;;;;;;7404498;19;19967;-75
2023/03/22 00:24:02;;;;;;;7.00;4.10;;;9.30;99.90;;;;;;7403868;19;19915;-76
2023/03/22 00:26:31;;;;;;;8.52;3.85;;;9.30;99.90;;;;;;7404241;19;20307;-76
2023/03/22 00:29:03;;;;;;;10.48;4.30;;;9.20;99.90;;;;;;7404136;19;19914;-76
2023/03/22 00:31:32;;;;;;;6.53;3.88;;;9.20;99.90;;;;;;7404764;19;19922;-77
2023/03/22 00:34:01;;;;;;;11.80;4.85;;;9.20;99.90;;;;;;7402295;19;19922;-77
2023/03/22 00:36:29;;;;;;;6.60;3.85;;;9.10;99.90;;;;;;7402522;19;20350;-76
2023/03/22 00:38:58;;;;;;;7.32;3.80;;;9.30;99.90;;;;;;7404271;19;19925;-76
2023/03/22 00:41:27;;;;;;;8.05;3.85;;;9.30;99.90;;;;;;7403587;19;19919;-76
2023/03/22 00:43:56;;;;;;;10.25;4.75;;;9.30;99.90;;;;;;7403847;19;19914;-76
2023/03/22 00:46:28;;;;;;;9.32;4.22;;;9.20;99.90;;;;;;7404985;19;20677;-76
2023/03/22 00:48:57;;;;;;;9.10;4.15;;;9.30;99.90;;;;;;7403474;19;20502;-76
2023/03/22 00:51:26;;;;;;;8.63;4.57;;;9.20;99.90;;;;;;7403460;19;19914;-76
2023/03/22 00:53:55;;;;;;;8.68;5.20;;;9.20;99.90;;;;;;7403485;19;20263;-76
2023/03/22 00:56:27;;;;;;;9.88;4.85;;;9.20;99.90;;;;;;7401358;19;19925;-76
2023/03/22 00:58:56;;;;;;;;;;;9.10;99.90;;;;;;7408144;19;19918;-76
2023/03/22 01:01:27;;;;;;;8.93;4.88;;;9.00;99.90;;;;;;7405675;19;19943;-76
2023/03/22 01:03:56;;;;;;;12.30;5.38;;;9.10;99.90;;;;;;7404826;19;20329;-76
2023/03/22 01:06:25;;;;;;;9.20;5.43;;;9.10;99.90;;;;;;7405124;19;19937;-76
2023/03/22 01:08:56;;;;;;;9.32;4.38;;;9.00;99.90;;;;;;7404706;19;20248;-77
2023/03/22 01:11:25;;;;;;;10.25;5.10;;;9.00;99.90;;;;;;7403737;19;19922;-76
2023/03/22 01:13:56;;;;;;;10.52;5.68;;;9.00;99.90;;;;;;7407837;19;19932;-76
2023/03/22 01:16:27;;;;;;;11.10;4.97;;;9.00;99.90;;;;;;7400982;19;19915;-76
2023/03/22 01:18:56;;;;;;;7.85;4.63;;;8.90;99.90;;;;;;7405883;19;20273;-76
2023/03/22 01:21:25;;;;;;;7.72;3.78;;;9.10;99.90;;;;;;7402581;19;19918;-76
2023/03/22 01:23:54;;;;;;;9.93;4.82;;;9.00;99.90;;;;;;7402253;19;19914;-76
2023/03/22 01:26:23;;;;;;;7.53;4.00;;;9.00;99.90;;;;;;7402495;19;19914;-75
2023/03/22 01:28:52;;;;;;;9.20;4.10;;;9.00;99.90;;;;;;7402641;19;20257;-76
2023/03/22 01:31:21;;;;;;;8.80;4.47;;;9.20;99.90;;;;;;7404907;19;19919;-76
2023/03/22 01:33:52;;;;;;;5.70;3.70;;;8.90;99.90;;;;;;7401213;19;19910;-76
2023/03/22 01:36:21;;;;;;;8.55;4.20;;;9.10;99.90;;;;;;7400725;19;19919;-76
2023/03/22 01:38:50;;;;;;;10.70;4.55;;;9.00;99.90;;;;;;7401989;19;19911;-76
2023/03/22 01:41:19;;;;;;;9.68;4.47;;;8.90;99.90;;;;;;7402300;19;19923;-76
2023/03/22 01:44:03;;;;;;;9.52;3.50;;;9.00;99.90;;;;;;7402074;19;19958;-76
2023/03/22 01:46:32;;;;;;;8.88;4.18;;;8.90;99.90;;;;;;7405830;19;20010;-76
2023/03/22 01:49:06;;;;;;;7.78;4.18;;;8.90;99.90;;;;;;7402023;19;19915;-76
2023/03/22 01:51:36;;;;;;;7.97;4.00;;;9.00;99.90;;;;;;7401388;19;19925;-77
2023/03/22 01:54:09;;;;;;;11.48;4.07;;;8.90;99.90;;;;;;7401785;19;19919;-76
2023/03/22 01:56:40;;;;;;;10.57;3.90;;;9.00;99.90;;;;;;7400318;19;19933;-76
2023/03/22 01:59:14;;;;;;;7.90;3.88;;;8.80;99.90;;;;;;7401362;19;20021;-76
2023/03/22 02:01:45;;;;;;;5.57;3.17;;;8.90;99.90;;;;;;7401726;19;19966;-76
2023/03/22 02:04:22;;;;;;;8.80;3.20;;;8.90;99.90;;;;;;7401253;19;19958;-76
2023/03/22 02:06:53;;;;;;;7.88;3.25;;;8.90;99.90;;;;;;7400872;19;20289;-76
2023/03/22 02:09:23;;;;;;;8.02;3.58;;;8.90;99.90;;;;;;7400801;19;19925;-75
2023/03/22 02:12:02;;;;;;;5.10;2.65;;;8.80;99.90;;;;;;7401100;19;19915;-76
2023/03/22 02:14:42;;;;;;;5.38;2.63;;;8.90;99.90;;;;;;7402620;19;19923;-76
2023/03/22 02:17:32;;;;;;;10.57;2.78;;;8.80;99.90;;;;;;7402766;19;19950;-76
2023/03/22 02:20:41;;;;;;;7.35;2.40;;;9.00;99.90;;;;;;7401000;19;20008;-76
2023/03/22 02:23:37;;;;;;;9.85;2.40;;;8.90;99.90;;;;;;7399322;19;19925;-77
2023/03/22 02:26:45;;;;;;;6.28;2.30;;;9.00;99.90;;;;;;7401006;19;19922;-76
2023/03/22 02:29:22;;;;;;;5.90;2.63;;;8.90;99.90;;;;;;7405636;19;19938;-76
2023/03/22 02:32:23;;;;;;;7.60;2.90;;;8.90;99.90;;;;;;7407461;19;19922;-76
2023/03/22 02:35:25;;;;;;;8.88;2.47;;;9.00;99.90;;;;;;7407053;19;20267;-76
2023/03/22 02:38:27;;;;;;;14.65;2.10;;;8.80;99.90;;;;;;7406451;19;19922;-76
2023/03/22 02:41:10;;;;;;;9.77;2.67;;;8.80;99.90;;;;;;7407012;19;19927;-76
2023/03/22 02:43:45;;;;;;;5.85;2.55;;;8.90;99.90;;;;;;7405871;19;19925;-76
2023/03/22 02:46:21;;;;;;;7.28;2.83;;;9.00;99.90;;;;;;7408139;19;19922;-77
2023/03/22 02:49:01;;;;;;;6.47;3.00;;;8.90;99.90;;;;;;7412172;19;19918;-76
2023/03/22 02:51:36;;;;;;;5.95;2.85;;;8.70;99.90;;;;;;7407263;19;19922;-76
2023/03/22 02:54:10;;;;;;;9.10;3.53;;;8.80;99.90;;;;;;7407446;19;19921;-76
2023/03/22 02:56:45;;;;;;;11.07;4.80;;;8.80;99.90;;;;;;7405643;19;20275;-76
2023/03/22 02:59:16;;;;;;;5.78;2.20;;;8.70;99.90;;;;;;7406357;19;19925;-76
2023/03/22 03:01:48;;;;;;;6.53;3.03;;;8.80;99.90;;;;;;7406682;19;19918;-76
2023/03/22 03:04:22;;;;;;;6.53;2.55;;;8.70;99.90;;;;;;7406518;19;19918;-76
2023/03/22 03:06:54;;;;;;;6.32;2.42;;;8.70;99.90;;;;;;7405759;19;19915;-76
2023/03/22 03:09:24;;;;;;;6.88;2.97;;;8.80;99.90;;;;;;7408472;19;20268;-76
2023/03/22 03:11:55;;;;;;;3.58;1.90;;;8.70;99.90;;;;;;7406340;19;19925;-77
2023/03/22 03:14:26;;;;;;;9.88;3.17;;;8.80;99.90;;;;;;7406886;19;19922;-76
2023/03/22 03:17:10;;;;;;;13.95;2.55;;;9.00;99.90;;;;;;7408276;19;19925;-76
2023/03/22 03:19:44;;;;;;;4.65;2.28;;;8.70;99.90;;;;;;7408440;19;19926;-75
2023/03/22 03:22:27;;;;;;;6.65;2.13;;;8.70;99.90;;;;;;7409549;19;19922;-75
2023/03/22 03:25:03;;;;;;;6.70;2.08;;;8.70;99.90;;;;;;7408090;19;19923;-76
2023/03/22 03:27:39;;;;;;;5.82;2.28;;;8.70;99.90;;;;;;7408427;19;19918;-75
2023/03/22 03:30:15;;;;;;;6.63;1.75;;;8.70;99.90;;;;;;7408893;19;19929;-76
2023/03/22 03:32:49;;;;;;;5.07;1.90;;;8.70;99.90;;;;;;7408513;19;19922;-76
2023/03/22 03:35:24;;;;;;;4.43;1.70;;;8.70;99.90;;;;;;7408727;19;20257;-75
2023/03/22 03:37:56;;;;;;;5.78;2.13;;;8.60;99.90;;;;;;7407537;19;19922;-75
2023/03/22 03:40:29;;;;;;;4.55;2.13;;;8.70;99.90;;;;;;7405956;19;19919;-76
2023/03/22 03:43:05;;;;;;;9.00;2.63;;;8.80;99.90;;;;;;7406090;19;19929;-76
2023/03/22 03:45:35;;;;;;;6.60;1.98;;;8.70;99.90;;;;;;7407430;19;20270;-75
2023/03/22 03:48:08;;;;;;;4.90;2.25;;;8.60;99.90;;;;;;7405299;19;19930;-75
2023/03/22 03:50:38;;;;;;;5.60;1.80;;;8.70;99.90;;;;;;7405004;19;19910;-75
2023/03/22 03:53:07;;;;;;;9.10;1.77;;;8.70;99.90;;;;;;7405444;19;19914;-75
2023/03/22 03:55:36;;;;;;;6.57;1.80;;;8.60;99.90;;;;;;7404994;19;19923;-76
2023/03/22 03:58:08;;;;;;;5.63;2.40;;;8.70;99.90;;;;;;7403804;19;20336;-76
2023/03/22 04:00:37;;;;;;;7.07;2.33;;;8.70;99.90;;;;;;7404698;19;19931;-76
2023/03/22 04:03:07;;;;;;;10.52;2.50;;;8.70;99.90;;;;;;7404128;19;19933;-76
2023/03/22 04:05:36;;;;;;;5.22;2.10;;;8.70;99.90;;;;;;7404421;19;19922;-75
2023/03/22 04:08:05;;;;;;;7.57;2.20;;;8.60;99.90;;;;;;7404249;19;19926;-77
2023/03/22 04:10:34;;;;;;;6.90;2.08;;;8.60;99.90;;;;;;7404481;19;19915;-76
2023/03/22 04:13:03;;;;;;;7.82;2.45;;;8.60;99.90;;;;;;7404831;19;19917;-76
2023/03/22 04:15:34;;;;;;;8.55;2.38;;;8.70;99.90;;;;;;7407942;19;20363;-76
2023/03/22 04:18:03;;;;;;;3.90;1.77;;;8.70;99.90;;;;;;7405281;19;19942;-76
2023/03/22 04:20:32;;;;;;;5.22;1.83;;;8.70;99.90;;;;;;7404713;19;19955;-76
2023/03/22 04:23:01;;;;;;;4.97;1.85;;;8.70;99.90;;;;;;7406331;19;19919;-76
2023/03/22 04:25:32;;;;;;;7.13;1.98;;;8.70;99.90;;;;;;7404146;19;19919;-76
2023/03/22 04:28:03;;;;;;;9.05;1.85;;;8.70;99.90;;;;;;7403857;19;19923;-76
2023/03/22 04:30:35;;;;;;;6.93;2.15;;;8.70;99.90;;;;;;7408114;19;19926;-76
2023/03/22 04:33:05;;;;;;;6.72;2.30;;;9.70;99.90;;;;;;7402933;19;19911;-76
2023/03/22 04:35:35;;;;;;;6.70;1.80;;;8.80;99.90;;;;;;7403555;19;19915;-76
2023/03/22 04:38:04;;;;;;;6.75;3.13;;;8.90;99.90;;;;;;7403302;19;19947;-76
2023/03/22 04:40:35;;;;;;;7.85;2.55;;;8.70;99.90;;;;;;7403806;19;19919;-76
2023/03/22 04:43:04;;;;;;;11.52;3.85;;;8.60;99.90;;;;;;7402835;19;19925;-76
2023/03/22 04:45:35;;;;;;;8.38;2.30;;;8.70;99.90;;;;;;7405240;19;19955;-76
2023/03/22 04:48:06;;;;;;;7.80;2.53;;;8.50;99.90;;;;;;7404220;19;19914;-76
2023/03/22 04:50:35;;;;;;;6.68;2.60;;;8.70;99.90;;;;;;7401976;19;19922;-76
2023/03/22 04:53:05;;;;;;;5.63;2.38;;;8.50;99.90;;;;;;7405848;19;19938;-76
2023/03/22 04:55:34;;;;;;;9.25;2.65;;;8.60;99.90;;;;;;7406656;19;20016;-76
2023/03/22 04:58:03;;;;;;;6.07;2.30;;;8.70;99.90;;;;;;7403291;19;19934;-76
2023/03/22 05:00:36;;;;;;;6.53;2.28;;;8.60;99.90;;;;;;7405929;19;19918;-76
2023/03/22 05:03:05;;;;;;;5.07;2.67;;;8.80;99.90;;;;;;7407235;19;19926;-76
2023/03/22 05:05:35;;;;;;;4.45;2.30;;;8.70;99.90;;;;;;7405540;19;19930;-76
2023/03/22 05:08:05;;;;;;;6.25;2.88;;;8.50;99.90;;;;;;7402781;19;19925;-75
2023/03/22 05:10:34;;;;;;;7.00;3.00;;;8.50;99.90;;;;;;7402909;19;19946;-76
2023/03/22 05:13:03;;;;;;;7.47;3.33;;;8.70;99.90;;;;;;7404163;19;20276;-75
2023/03/22 05:15:34;;;;;;;5.78;3.25;;;8.60;99.90;;;;;;7402815;19;19914;-76
2023/03/22 05:18:03;;;;;;;10.05;3.22;;;8.70;99.90;;;;;;7401127;19;20248;-76
2023/03/22 05:20:32;;;;;;;7.32;3.22;;;8.70;99.90;;;;;;7405276;19;19929;-76
2023/03/22 05:23:01;;;;;;;6.07;2.80;;;8.60;99.90;;;;;;7402400;19;19915;-76
2023/03/22 05:25:30;;;;;;;6.63;3.85;;;8.70;99.90;;;;;;7402778;19;19946;-75
2023/03/22 05:28:00;;;;;;;6.40;3.53;;;8.70;99.90;;;;;;7402654;19;19918;-76
2023/03/22 05:30:30;;;;;;;9.70;4.70;;;8.80;99.90;;;;;;7402574;19;20477;-76
2023/03/22 05:33:03;;;;;;;8.00;4.43;;;8.60;99.90;;;;;;7406638;19;19951;-76
2023/03/22 05:35:32;;;;;;;8.45;4.05;;;8.70;99.90;;;;;;7403791;19;19915;-77
2023/03/22 05:38:01;;;;;;;11.05;5.22;;;8.80;99.90;;;;;;7401845;19;19932;-76
2023/03/22 05:40:30;;;;;;;11.98;4.97;;;8.70;99.90;;;;;;7405747;19;19982;-76
2023/03/22 05:42:59;;;;;;;9.73;5.13;;;8.80;99.90;;;;;;7403239;19;19970;-75
2023/03/22 05:45:28;;;;;;;13.15;5.95;;;8.80;99.90;;;;;;7404748;19;19952;-76
2023/03/22 05:47:57;;;;;;;8.38;4.95;;;8.90;99.90;;;;;;7401929;19;19911;-75
2023/03/22 05:50:29;;;;;;;10.93;5.53;;;8.90;99.90;;;;;;7401599;19;19918;-76
2023/03/22 05:52:58;;;;;;;12.52;6.30;;;8.90;99.90;;;;;;7401696;19;19925;-76
2023/03/22 05:55:29;;;;;;;11.15;5.93;;;8.90;99.90;;;;;;7401241;19;19910;-76
2023/03/22 05:57:58;;;;;;;12.07;6.05;;;8.90;99.90;;;;;;7399029;19;19929;-76
2023/03/22 06:00:27;;;;;;;15.13;6.13;;;9.00;99.90;;;;;;7401860;19;20084;-76
2023/03/22 06:02:59;;;;;;;18.58;6.47;;;8.90;99.90;;;;;;7400325;19;19926;-76
2023/03/22 06:05:30;;;;;;;;;;;9.10;99.90;;;;;;7404444;19;19934;-75
2023/03/22 06:08:00;;;;;;;9.27;6.10;;;8.90;99.90;;;;;;7400418;19;20304;-76
2023/03/22 06:10:29;;;;;;;12.85;6.00;;;8.90;99.90;;;;;;7401677;19;19925;-75
2023/03/22 06:12:58;;;;;;;13.95;6.50;;;9.00;99.90;;;;;;7403874;19;19923;-76
2023/03/22 06:15:27;;;;;;;13.60;6.35;;;9.00;99.90;;;;;;7401217;19;19914;-76
2023/03/22 06:17:55;;;;;;;9.93;5.78;;;9.10;99.90;;;;;;7402581;19;20012;-76
2023/03/22 06:20:24;;;;;;;13.88;5.85;;;9.10;99.90;;;;;;7400601;19;20255;-75
2023/03/22 06:22:56;;;;;;;13.07;6.97;;;9.00;99.90;;;;;;7400665;19;19922;-76
2023/03/22 06:25:25;;;;;;;11.02;5.63;;;9.00;99.90;;;;;;7398262;19;19919;-76
2023/03/22 06:27:54;;;;;;;10.95;5.85;;;9.10;99.90;;;;;;7403478;19;19922;-77
2023/03/22 06:30:22;;;;;;;10.38;6.45;;;9.10;99.90;;;;;;7401129;19;19925;-76
2023/03/22 06:32:51;;;;;;;11.73;5.47;;;9.10;99.90;;;;;;7400195;19;20004;-77
2023/03/22 06:35:21;;;;;;;10.45;5.32;;;9.20;99.90;;;;;;7404558;19;19926;-75
2023/03/22 06:37:49;;;;;;;9.23;5.22;;;9.10;99.90;;;;;;7399323;19;19918;-75
2023/03/22 06:40:21;;;;;;;7.93;5.43;;;9.20;99.90;;;;;;7400118;19;19933;-75
2023/03/22 06:42:50;;;;;;;11.98;6.53;;;9.10;99.90;;;;;;7400724;19;20249;-75
2023/03/22 06:45:19;;;;;;;13.73;5.55;;;9.10;99.90;;;;;;7399883;19;19926;-75
2023/03/22 06:47:49;;;;;;;9.52;5.72;;;9.10;99.90;;;;;;7401797;19;19943;-74
2023/03/22 06:50:18;;;;;;;11.73;5.43;;;9.30;99.90;;;;;;7402145;19;19929;-75
2023/03/22 06:52:47;;;;;;;9.40;4.82;;;9.20;99.90;;;;;;7399849;19;20273;-75
2023/03/22 06:55:21;;;;;;;11.50;5.45;;;9.50;99.90;;;;;;7400003;19;19926;-77
2023/03/22 06:57:52;;;;;;;11.38;5.30;;;9.40;99.90;;;;;;7397333;19;19925;-75
2023/03/22 07:00:21;;;;;;;10.30;5.40;;;9.40;99.90;;;;;;7399116;19;19929;-75
2023/03/22 07:02:50;;;;;;;11.45;5.25;;;9.40;99.90;;;;;;7398011;19;20253;-76
2023/03/22 07:05:19;;;;;;;10.02;4.97;;;9.50;99.90;;;;;;7402578;19;19930;-74
2023/03/22 07:07:48;;;;;;;10.43;5.38;;;9.40;99.90;;;;;;7398791;19;19922;-76
2023/03/22 07:10:17;;;;;;;10.05;5.22;;;9.50;99.90;;;;;;7400173;19;19933;-74
2023/03/22 07:12:49;;;;;;;10.30;5.15;;;9.50;99.90;;;;;;7399239;19;19926;-74
2023/03/22 07:15:23;;;;;;;12.68;4.90;;;9.50;99.90;;;;;;7407038;19;19919;-74
2023/03/22 07:17:52;;;;;;;8.52;4.90;;;9.40;99.90;;;;;;7404509;19;19918;-75
2023/03/22 07:20:21;;;;;;;10.23;5.25;;;9.50;99.90;;;;;;7405256;19;19922;-72
2023/03/22 07:22:51;;;;;;;10.85;4.97;;;9.60;99.90;;;;;;7404879;19;19921;-71
2023/03/22 07:25:20;;;;;;;9.27;5.38;;;9.70;99.90;;;;;;7405170;19;19915;-71
2023/03/22 07:27:51;;;;;;;8.73;4.55;;;9.60;99.90;;;;;;7404822;19;19918;-74
2023/03/22 07:30:20;;;;;;;7.95;4.40;;;9.60;99.90;;;;;;7408744;19;19930;-73
2023/03/22 07:32:50;;;;;;;9.18;4.38;;;9.70;99.90;;;;;;7409245;19;19949;-73
2023/03/22 07:35:19;;;;;;;9.90;4.90;;;9.60;99.90;;;;;;7406715;19;19927;-73
2023/03/22 07:37:48;;;;;;;8.50;4.78;;;9.80;99.90;;;;;;7402907;19;19921;-73
2023/03/22 07:40:17;;;;;;;10.93;4.88;;;9.70;99.90;;;;;;7405167;19;19921;-72
2023/03/22 07:42:45;;;;;;;10.63;4.68;;;9.80;99.90;;;;;;7407047;19;19939;-73
2023/03/22 07:45:17;;;;;;;9.48;4.13;;;9.80;99.90;;;;;;7404885;19;19918;-73
2023/03/22 07:47:46;;;;;;;9.60;4.57;;;9.90;99.90;;;;;;7406228;19;19925;-73
2023/03/22 07:50:16;;;;;;;8.70;4.70;;;9.90;99.90;;;;;;7407588;19;19922;-73
2023/03/22 07:52:46;;;;;;;7.13;4.05;;;9.80;99.90;;;;;;7405240;19;19926;-74
2023/03/22 07:55:16;;;;;;;6.78;4.63;;;9.90;99.90;;;;;;7404784;19;19928;-74
2023/03/22 07:57:45;;;;;;;9.80;3.88;;;9.80;99.90;;;;;;7405996;19;19940;-74
2023/03/22 08:00:18;;;;;;;12.77;4.03;;;9.90;99.90;;;;;;7404269;19;19914;-74
2023/03/22 08:02:47;;;;;;;6.88;3.67;;;9.90;99.90;;;;;;7404232;19;19918;-74
2023/03/22 08:05:16;;;;;;;9.10;3.92;;;9.90;99.90;;;;;;7408665;19;19927;-74
2023/03/22 08:07:45;;;;;;;8.43;4.13;;;10.00;99.90;;;;;;7404273;19;19917;-74
2023/03/22 08:10:14;;;;;;;7.00;3.33;;;10.00;99.90;;;;;;7406364;19;19931;-74
2023/03/22 08:12:43;;;;;;;9.32;4.35;;;9.80;99.90;;;;;;7408238;19;20386;-74
2023/03/22 08:15:12;;;;;;;8.65;3.47;;;9.90;99.90;;;;;;7404388;19;19915;-74
2023/03/22 08:17:44;;;;;;;7.65;3.53;;;9.90;99.90;;;;;;7402980;19;19921;-74
2023/03/22 08:20:13;;;;;;;8.35;3.35;;;9.90;99.90;;;;;;7405133;19;19922;-74
2023/03/22 08:22:43;;;;;;;8.07;3.45;;;9.90;99.90;;;;;;7406545;19;19938;-75
2023/03/22 08:25:13;;;;;;;9.93;3.70;;;10.00;99.90;;;;;;7404970;19;19917;-74
2023/03/22 08:27:41;;;;;;;8.23;3.25;;;10.00;99.90;;;;;;7405820;19;20267;-74
2023/03/22 08:30:12;;;;;;;6.57;3.08;;;9.90;99.90;;;;;;7404697;19;20370;-74
2023/03/22 08:32:43;;;;;;;6.30;3.38;;;10.00;99.90;;;;;;7405602;19;19914;-74
2023/03/22 08:35:13;;;;;;;7.03;3.13;;;10.10;99.90;;;;;;7403460;19;20269;-74
2023/03/22 08:37:42;;;;;;;7.88;2.70;;;10.00;99.90;;;;;;7404536;19;19918;-74
2023/03/22 08:40:12;;;;;;;6.63;3.35;;;9.90;99.90;;;;;;7403777;19;19919;-74
2023/03/22 08:42:41;;;;;;;6.85;3.38;;;10.00;99.90;;;;;;7404756;19;20343;-74
2023/03/22 08:45:11;;;;;;;6.25;3.03;;;10.20;99.90;;;;;;7406777;19;19929;-75
2023/03/22 08:47:40;;;;;;;7.28;2.67;;;10.00;99.90;;;;;;7405638;19;19922;-74
2023/03/22 08:50:12;;;;;;;7.85;3.20;;;10.20;99.90;;;;;;7403201;19;20643;-74
2023/03/22 08:52:41;;;;;;;7.10;2.47;;;10.20;99.90;;;;;;7402620;19;19925;-74
2023/03/22 08:55:13;;;;;;;6.10;2.53;;;10.20;99.90;;;;;;7405358;19;19918;-74
2023/03/22 08:57:43;;;;;;;6.85;2.90;;;10.40;99.90;;;;;;7404664;19;19922;-74
2023/03/22 09:00:15;;;;;;;5.65;2.47;;;10.30;99.90;;;;;;7405250;19;19926;-74
2023/03/22 09:02:44;;;;;;;9.55;3.15;;;10.30;99.90;;;;;;7407565;19;19921;-74
2023/03/22 09:05:16;;;;;;;3.63;2.55;;;10.30;99.90;;;;;;7404569;19;20337;-73
2023/03/22 09:07:45;;;;;;;8.57;2.80;;;10.30;99.90;;;;;;7402923;19;20280;-74
2023/03/22 09:10:15;;;;;;;6.97;3.00;;;10.30;99.90;;;;;;7405906;19;19934;-73
2023/03/22 09:12:44;;;;;;;10.27;3.55;;;10.30;99.90;;;;;;7405910;19;19922;-74
2023/03/22 09:15:13;;;;;;;4.95;2.50;;;10.40;99.90;;;;;;7402484;19;19926;-73
2023/03/22 09:17:42;;;;;;;5.80;2.22;;;10.50;99.90;;;;;;7403520;19;19922;-74
2023/03/22 09:20:11;;;;;;;7.53;2.33;;;10.50;99.90;;;;;;7404896;19;19930;-73
2023/03/22 09:22:43;;;;;;;9.18;2.63;;;10.50;99.90;;;;;;7402431;19;19924;-73
2023/03/22 09:25:12;;;;;;;7.80;3.00;;;10.70;99.90;;;;;;7400754;19;20253;-74
2023/03/22 09:27:41;;;;;;;5.05;2.42;;;10.60;99.90;;;;;;7402712;19;19929;-74
2023/03/22 09:30:11;;;;;;;3.35;1.92;;;10.60;99.90;;;;;;7401982;19;19923;-73
2023/03/22 09:32:40;;;;;;;4.15;2.22;;;10.50;99.90;;;;;;7373273;19;19914;-73
2023/03/22 09:35:09;;;;;;;5.18;2.00;;;10.60;99.90;;;;;;7399650;19;19922;-73
2023/03/22 09:37:38;;;;;;;11.32;2.88;;;10.50;99.90;;;;;;7397519;19;19922;-74
2023/03/22 09:40:14;;;;;;;6.05;2.20;;;10.60;99.90;;;;;;7401343;19;19925;-74
2023/03/22 09:42:46;;;;;;;6.70;2.25;;;10.60;99.90;;;;;;7400119;19;19925;-73
2023/03/22 09:45:19;;;;;;;9.63;2.53;;;10.70;99.90;;;;;;7404452;19;19918;-74
2023/03/22 09:47:50;;;;;;;6.28;2.20;;;10.70;99.90;;;;;;7401808;19;19919;-74
2023/03/22 09:50:22;;;;;;;5.55;2.53;;;10.60;99.90;;;;;;7401727;19;19986;-74
2023/03/22 09:52:51;;;;;;;;;;;10.60;99.90;;;;;;7400020;19;19922;-74
2023/03/22 09:55:31;;;;;;;7.15;2.10;;;10.60;99.90;;;;;;7404064;19;19922;-74
2023/03/22 09:58:08;;;;;;;8.88;2.15;;;10.70;99.90;;;;;;7400447;19;19921;-74
2023/03/22 10:00:44;;;;;;;2.78;1.98;;;10.60;99.90;;;;;;7398753;19;19926;-74
2023/03/22 10:03:23;;;;;;;7.60;2.20;;;10.60;99.90;;;;;;7402152;19;19923;-74
2023/03/22 10:05:59;;;;;;;6.28;2.20;;;10.70;99.90;;;;;;7404259;19;19914;-74
2023/03/22 10:08:52;;;;;;;8.50;2.10;;;10.80;99.90;;;;;;7402592;19;19958;-75
2023/03/22 10:11:33;;;;;;;5.10;2.22;;;10.70;99.90;;;;;;7403886;19;20267;-74
2023/03/22 10:14:10;;;;;;;6.43;2.40;;;10.80;99.90;;;;;;7403289;19;19925;-74
2023/03/22 10:16:40;;;;;;;5.25;1.92;;;10.80;99.90;;;;;;7402019;19;20423;-74
2023/03/22 10:19:16;;;;;;;7.57;2.40;;;10.70;99.90;;;;;;7399499;19;19922;-74
2023/03/22 10:21:48;;;;;;;7.88;1.90;;;10.70;99.90;;;;;;7403320;19;19923;-74
2023/03/22 10:24:21;;;;;;;6.72;2.75;;;10.60;99.90;;;;;;7400312;19;19914;-74
2023/03/22 10:26:53;;;;;;;8.02;2.30;;;10.50;99.90;;;;;;7399855;19;19942;-73
2023/03/22 10:29:27;;;;;;;8.65;2.40;;;10.60;99.90;;;;;;7404108;19;20370;-74
2023/03/22 10:31:56;;;;;;;6.80;2.10;;;10.50;99.90;;;;;;7400411;19;19919;-74
2023/03/22 10:34:29;;;;;;;6.47;2.25;;;10.60;99.90;;;;;;7400111;19;19922;-74
2023/03/22 10:37:02;;;;;;;7.22;2.97;;;10.50;99.90;;;;;;7401694;19;19926;-75
2023/03/22 10:39:35;;;;;;;6.60;2.30;;;10.40;99.90;;;;;;7402715;19;19925;-74
2023/03/22 10:42:10;;;;;;;7.07;2.35;;;10.50;99.90;;;;;;7403961;19;20256;-74
2023/03/22 10:44:47;;;;;;;5.40;2.17;;;10.50;99.90;;;;;;7398999;19;19929;-74
2023/03/22 10:47:17;;;;;;;7.03;1.90;;;10.40;99.90;;;;;;7399759;19;19966;-74
2023/03/22 10:49:53;;;;;;;9.82;2.60;;;10.30;99.90;;;;;;7403779;19;19922;-73
2023/03/22 10:52:39;;;;;;;6.30;2.03;;;10.30;99.90;;;;;;7407470;19;19927;-74
2023/03/22 10:55:12;;;;;;;5.82;2.00;;;10.20;99.90;;;;;;7403619;19;19927;-75
2023/03/22 10:57:47;;;;;;;8.82;1.80;;;10.10;99.90;;;;;;7402755;19;19923;-73
2023/03/22 11:00:19;;;;;;;6.50;2.40;;;10.20;99.90;;;;;;7406014;19;19929;-74
2023/03/22 11:02:53;;;;;;;5.30;1.75;;;10.10;99.90;;;;;;7405831;19;19930;-74
2023/03/22 11:05:26;;;;;;;6.18;2.05;;;10.00;99.90;;;;;;7406224;19;19933;-73
2023/03/22 11:07:57;;;;;;;11.90;3.42;;;10.00;99.90;;;;;;7406015;19;19926;-73
2023/03/22 11:13:58;;;;;;;5.05;2.20;;;10.00;99.90;;;;;;7399633;19;19932;-74
2023/03/22 11:16:47;;;;;;;7.95;2.70;;;10.00;99.90;;;;;;7401606;19;19922;-74
2023/03/22 11:19:22;;;;;;;7.20;2.70;;;9.90;99.90;;;;;;7403316;19;19926;-74
2023/03/22 11:21:53;;;;;;;5.72;2.22;;;9.90;99.90;;;;;;7401431;19;19947;-74
2023/03/22 11:24:23;;;;;;;4.25;2.50;;;9.90;99.90;;;;;;7400681;19;19915;-74
2023/03/22 11:27:06;;;;;;;5.90;2.60;;;9.80;99.90;;;;;;7404398;19;19923;-73
2023/03/22 11:29:46;;;;;;;7.50;2.42;;;10.00;99.90;;;;;;7401964;19;19960;-74
2023/03/22 11:32:27;;;;;;;7.38;2.40;;;9.80;99.90;;;;;;7405693;19;19922;-74
2023/03/22 11:35:04;;;;;;;5.95;2.40;;;9.80;99.90;;;;;;7405993;19;20315;-73
2023/03/22 11:37:33;;;;;;;4.30;2.28;;;9.90;99.90;;;;;;7404173;19;19919;-75
2023/03/22 11:40:03;;;;;;;9.50;2.75;;;9.80;99.90;;;;;;7383120;19;19918;-75
2023/03/22 11:42:37;;;;;;;8.00;2.25;;;9.60;99.90;;;;;;7386201;19;19919;-75
2023/03/22 11:45:09;;;;;;;6.13;2.75;;;9.80;99.90;;;;;;7388519;19;19945;-76
2023/03/22 11:47:40;;;;;;;13.38;2.78;;;9.80;99.90;;;;;;7387842;19;19926;-76
2023/03/22 11:50:21;;;;;;;5.38;2.33;;;9.80;99.90;;;;;;7388474;19;19945;-76
2023/03/22 11:52:50;;;;;;;6.88;2.28;;;9.80;99.90;;;;;;7389239;19;19919;-76
2023/03/22 11:55:20;;;;;;;7.43;2.58;;;8.10;99.90;;;;;;7385178;19;19925;-76
2023/03/22 11:57:49;;;;;;;5.05;2.20;;;9.90;99.90;;;;;;7386865;19;19927;-76
2023/03/22 12:00:26;;;;;;;5.15;1.95;;;9.90;99.90;;;;;;7385043;19;19918;-76
2023/03/22 12:02:59;;;;;;;5.25;2.22;;;9.80;99.90;;;;;;7387761;19;19925;-76
2023/03/22 12:05:32;;;;;;;6.45;2.25;;;9.80;99.90;;;;;;7388073;19;19923;-76
2023/03/22 12:08:05;;;;;;;5.45;3.03;;;9.90;99.90;;;;;;7389050;19;20427;-76
2023/03/22 12:10:40;;;;;;;5.38;2.30;;;9.90;99.90;;;;;;7385927;19;19939;-75
2023/03/22 12:13:17;;;;;;;7.72;2.33;;;10.00;99.90;;;;;;7387951;19;19922;-76
2023/03/22 12:15:53;;;;;;;6.63;2.30;;;9.80;99.90;;;;;;7386532;19;19918;-77
2023/03/22 12:18:28;;;;;;;5.70;2.35;;;10.00;99.90;;;;;;7386538;19;19922;-77
2023/03/22 12:20:58;;;;;;;3.88;1.50;;;11.50;99.90;;;;;;7384663;19;19922;-77
2023/03/22 12:23:30;;;;;;;5.45;2.20;;;9.90;99.90;;;;;;7386945;19;19914;-77
2023/03/22 12:26:04;;;;;;;4.85;1.58;;;9.80;99.90;;;;;;7382823;19;19926;-77
2023/03/22 12:28:37;;;;;;;3.20;2.00;;;9.90;99.90;;;;;;7387695;19;19915;-76
2023/03/22 12:31:13;;;;;;;11.38;2.10;;;9.70;99.90;;;;;;7387192;19;20001;-77
2023/03/22 12:33:47;;;;;;;6.10;1.90;;;9.90;99.90;;;;;;7393516;19;19928;-77
2023/03/22 12:36:19;;;;;;;4.93;2.22;;;9.80;99.90;;;;;;7403753;19;19929;-77
2023/03/22 12:38:52;;;;;;;4.60;1.70;;;9.80;99.90;;;;;;7405732;19;19918;-78
2023/03/22 12:41:27;;;;;;;6.80;2.22;;;9.70;99.90;;;;;;7403254;19;19925;-77
2023/03/22 12:43:58;;;;;;;4.32;1.80;;;9.70;99.90;;;;;;7403851;19;20328;-77
2023/03/22 12:46:34;;;;;;;2.67;1.80;;;9.70;99.90;;;;;;7406237;19;19933;-77
2023/03/22 12:49:08;;;;;;;7.80;2.50;;;9.80;99.90;;;;;;7405661;19;19933;-76
2023/03/22 12:51:38;;;;;;;6.95;2.40;;;9.80;99.90;;;;;;7403063;19;19933;-77
2023/03/22 12:54:07;;;;;;;4.95;2.10;;;9.80;99.90;;;;;;7403476;19;19914;-77
2023/03/22 12:56:42;;;;;;;5.03;2.00;;;9.80;99.90;;;;;;7403333;19;19915;-78
2023/03/22 12:59:18;;;;;;;4.82;1.77;;;9.80;99.90;;;;;;7403335;19;19950;-77
2023/03/22 13:01:55;;;;;;;8.10;2.05;;;9.90;99.90;;;;;;7403361;19;19915;-77
2023/03/22 13:04:51;;;;;;;5.65;2.40;;;9.80;99.90;;;;;;7402887;19;19919;-78
2023/03/22 13:07:37;;;;;;;4.65;2.72;;;10.00;99.90;;;;;;7405698;19;19916;-76
2023/03/22 13:10:37;;;;;;;6.28;2.20;;;9.70;99.90;;;;;;7405773;19;19933;-77
2023/03/22 13:13:33;;;;;;;;;;;9.60;99.90;;;;;;7404615;19;19934;-78
2023/03/22 13:16:14;;;;;;;3.47;2.20;;;9.60;99.90;;;;;;7401597;19;20016;-77
2023/03/22 13:19:27;;;;;;;7.15;1.98;;;9.50;99.90;;;;;;7406085;19;20439;-77
2023/03/22 13:22:21;;;;;;;8.43;2.70;;;9.50;99.90;;;;;;7401686;19;19925;-77
2023/03/22 13:25:02;;;;;;;7.95;2.38;;;9.60;99.90;;;;;;7402155;19;19922;-77